Time;durP1;ratioP1;P1;durP2;ratioP2;P2;SDS_P1;SDS_P2;PMS_P1;PMS_P2;Temp;Humidity;BMP_temperature;BMP_pressure;BME280_temperature;BME280_humidity;BME280_pressure;Samples;Min_cycle;Max_cycle;Signal;HPM_P1;HPM_P2
2023/03/12 05:03:55;;;;;;;4.30;4.00;;;1.10;99.90;;;;;;6197639;22;20245;-71
2023/03/12 05:06:22;;;;;;;2.90;2.70;;;1.10;99.90;;;;;;5057578;28;20193;-71
2023/03/12 05:08:48;;;;;;;4.13;2.55;;;1.20;99.90;;;;;;5054179;28;20193;-71
2023/03/12 05:11:14;;;;;;;6.23;3.80;;;1.20;99.90;;;;;;5053361;28;20176;-70
2023/03/12 05:13:41;;;;;;;2.20;2.00;;;1.20;99.90;;;;;;5052891;28;20904;-71
2023/03/12 05:16:07;;;;;;;2.10;2.00;;;1.20;99.90;;;;;;5054115;28;20176;-71
2023/03/12 05:18:33;;;;;;;2.75;2.55;;;1.10;99.90;;;;;;5054087;28;20169;-72
2023/03/12 05:21:01;;;;;;;4.17;2.70;;;1.10;99.90;;;;;;5046013;28;20196;-71
2023/03/12 05:23:28;;;;;;;2.60;2.40;;;1.20;99.90;;;;;;5033900;28;20441;-71
2023/03/12 05:25:54;;;;;;;2.53;2.40;;;1.20;99.90;;;;;;5034232;28;20189;-71
2023/03/12 05:28:20;;;;;;;4.90;2.30;;;1.20;99.90;;;;;;5050157;28;20211;-71
2023/03/12 05:30:46;;;;;;;4.55;3.28;;;1.10;99.90;;;;;;5052557;28;20257;-71
2023/03/12 05:33:11;;;;;;;4.38;3.00;;;1.20;99.90;;;;;;5053596;28;20260;-72
2023/03/12 05:35:37;;;;;;;2.00;1.87;;;1.20;99.90;;;;;;5052455;28;20197;-71
2023/03/12 05:38:03;;;;;;;2.53;2.10;;;1.20;99.90;;;;;;5052477;28;20613;-71
2023/03/12 05:40:29;;;;;;;2.13;1.98;;;1.30;99.90;;;;;;5053994;28;20538;-71
2023/03/12 05:42:55;;;;;;;2.90;2.70;;;1.30;99.90;;;;;;5053213;28;20269;-71
2023/03/12 05:45:20;;;;;;;2.90;2.53;;;1.40;99.90;;;;;;5053772;28;20275;-71
2023/03/12 05:47:46;;;;;;;2.43;1.83;;;1.40;99.90;;;;;;5053812;28;20189;-72
2023/03/12 05:50:12;;;;;;;3.07;2.87;;;1.50;99.90;;;;;;5053789;28;20173;-71
2023/03/12 05:52:38;;;;;;;2.07;1.97;;;1.50;99.90;;;;;;5054033;28;20227;-70
2023/03/12 05:55:04;;;;;;;2.37;2.17;;;1.50;99.90;;;;;;5052061;28;20432;-70
2023/03/12 05:57:30;;;;;;;2.40;2.20;;;1.50;99.90;;;;;;5053345;28;20292;-71
2023/03/12 05:59:55;;;;;;;2.15;2.05;;;1.60;99.90;;;;;;5053432;28;20177;-71
2023/03/12 06:02:21;;;;;;;4.20;2.50;;;1.60;99.90;;;;;;5053593;28;20664;-70
2023/03/12 06:04:47;;;;;;;2.70;2.50;;;1.60;99.90;;;;;;5051070;28;20240;-71
2023/03/12 06:07:12;;;;;;;3.60;2.80;;;1.60;99.90;;;;;;5052221;28;20185;-71
2023/03/12 06:09:38;;;;;;;5.43;2.67;;;1.70;99.90;;;;;;5051464;28;20174;-71
2023/03/12 06:12:04;;;;;;;2.73;2.33;;;1.60;99.90;;;;;;5052013;28;20177;-70
2023/03/12 06:14:29;;;;;;;3.20;2.90;;;1.70;99.90;;;;;;5047031;28;20189;-71
2023/03/12 06:16:55;;;;;;;2.63;2.43;;;1.70;99.90;;;;;;5053018;28;20826;-71
2023/03/12 06:19:21;;;;;;;2.70;2.50;;;1.70;99.90;;;;;;5053335;28;20200;-70
2023/03/12 06:21:46;;;;;;;2.40;2.20;;;1.70;99.90;;;;;;5053369;28;20684;-70
2023/03/12 06:24:12;;;;;;;3.57;2.60;;;1.80;99.90;;;;;;5051396;28;20204;-73
2023/03/12 06:26:39;;;;;;;2.70;2.50;;;1.80;99.90;;;;;;5053133;28;20239;-69
2023/03/12 06:29:04;;;;;;;3.42;3.15;;;1.90;99.90;;;;;;5052899;28;20201;-69
2023/03/12 06:31:30;;;;;;;2.90;2.70;;;1.80;99.90;;;;;;5051935;28;20256;-70
2023/03/12 06:33:56;;;;;;;3.42;2.63;;;1.80;99.90;;;;;;5052810;28;20204;-70
2023/03/12 06:36:22;;;;;;;2.30;2.17;;;1.80;99.90;;;;;;5051756;28;20182;-70
2023/03/12 06:38:48;;;;;;;3.65;3.15;;;1.80;99.90;;;;;;5051902;28;20188;-70
2023/03/12 06:41:16;;;;;;;4.73;3.20;;;1.80;99.90;;;;;;5051966;28;20275;-70
2023/03/12 06:43:43;;;;;;;3.70;3.08;;;1.80;99.90;;;;;;5051642;28;20173;-69
2023/03/12 06:46:15;;;;;;;2.88;2.67;;;1.80;99.90;;;;;;5051633;28;20659;-70
2023/03/12 06:48:41;;;;;;;6.20;3.22;;;1.80;99.90;;;;;;5052772;28;20287;-70
2023/03/12 06:51:08;;;;;;;3.93;3.53;;;1.80;99.90;;;;;;5053331;28;20323;-70
2023/03/12 06:53:34;;;;;;;3.22;3.03;;;1.90;99.90;;;;;;5051430;28;20752;-71
2023/03/12 06:56:00;;;;;;;5.30;2.58;;;1.90;99.90;;;;;;5053437;28;20165;-71
2023/03/12 06:58:26;;;;;;;2.70;2.60;;;1.90;99.90;;;;;;5052822;28;20184;-71
2023/03/12 07:00:52;;;;;;;2.83;2.63;;;1.90;99.90;;;;;;5053034;28;20169;-70
2023/03/12 07:03:17;;;;;;;2.80;2.60;;;1.90;99.90;;;;;;5051530;28;20223;-70
2023/03/12 07:05:45;;;;;;;2.60;2.40;;;1.90;99.90;;;;;;5052255;28;20436;-71
2023/03/12 07:08:11;;;;;;;2.80;2.60;;;1.90;99.90;;;;;;5053004;28;20193;-71
2023/03/12 07:10:37;;;;;;;3.55;3.00;;;1.80;99.90;;;;;;5053367;28;20637;-71
2023/03/12 07:13:02;;;;;;;3.07;2.60;;;1.80;99.90;;;;;;5051906;28;20188;-71
2023/03/12 07:15:28;;;;;;;5.30;3.33;;;1.80;99.90;;;;;;5051916;28;20206;-71
2023/03/12 07:17:53;;;;;;;3.17;2.90;;;1.80;99.90;;;;;;5052664;28;20189;-71
2023/03/12 07:20:19;;;;;;;4.07;2.80;;;1.80;99.90;;;;;;5053950;28;20189;-70
2023/03/12 07:22:45;;;;;;;2.57;2.37;;;1.70;99.90;;;;;;5056601;28;20260;-70
2023/03/12 07:25:11;;;;;;;4.23;2.50;;;1.70;99.90;;;;;;5056482;28;20351;-69
2023/03/12 07:27:36;;;;;;;3.70;2.60;;;1.70;99.90;;;;;;5056523;28;20303;-68
2023/03/12 07:30:03;;;;;;;3.90;3.07;;;1.70;99.90;;;;;;5055836;28;20165;-68
2023/03/12 07:32:29;;;;;;;2.28;2.10;;;1.70;99.90;;;;;;5056558;28;20172;-68
2023/03/12 07:34:54;;;;;;;4.87;3.00;;;1.70;99.90;;;;;;5056553;28;20185;-67
2023/03/12 07:37:21;;;;;;;3.90;2.50;;;1.70;99.90;;;;;;5054176;28;20676;-67
2023/03/12 07:39:50;;;;;;;3.30;3.10;;;1.70;99.90;;;;;;5055259;28;20177;-67
2023/03/12 07:42:15;;;;;;;4.15;2.58;;;1.80;99.90;;;;;;5054251;28;20220;-68
2023/03/12 07:44:41;;;;;;;2.40;2.20;;;1.90;99.90;;;;;;5054461;28;20225;-68
2023/03/12 07:47:06;;;;;;;5.43;2.90;;;1.90;99.90;;;;;;5056177;28;20197;-68
2023/03/12 07:49:32;;;;;;;3.50;3.20;;;2.00;99.90;;;;;;5055850;28;20495;-68
2023/03/12 07:51:58;;;;;;;2.97;2.20;;;2.10;99.90;;;;;;5055965;28;20166;-69
2023/03/12 07:54:29;;;;;;;3.67;2.70;;;2.20;99.90;;;;;;5046845;28;20513;-67
2023/03/12 07:56:55;;;;;;;2.95;2.75;;;2.20;99.90;;;;;;5055783;28;20400;-69
2023/03/12 07:59:22;;;;;;;3.40;3.10;;;2.30;99.90;;;;;;5055701;28;20176;-66
2023/03/12 08:01:48;;;;;;;3.97;3.65;;;2.40;99.90;;;;;;5055689;28;20583;-70
2023/03/12 08:04:14;;;;;;;8.55;5.57;;;2.50;99.90;;;;;;5055069;28;20568;-68
2023/03/12 08:06:41;;;;;;;4.70;2.90;;;2.60;99.90;;;;;;5052742;28;20185;-69
2023/03/12 08:09:08;;;;;;;4.53;2.90;;;2.70;99.90;;;;;;5054933;28;20459;-69
2023/03/12 08:11:35;;;;;;;3.20;3.00;;;2.90;99.90;;;;;;5054154;28;20169;-70
2023/03/12 08:14:01;;;;;;;2.90;2.75;;;3.00;99.90;;;;;;5054563;28;20197;-68
2023/03/12 08:16:28;;;;;;;3.47;3.28;;;3.10;99.90;;;;;;5055409;28;20533;-69
2023/03/12 08:18:53;;;;;;;3.53;3.10;;;3.10;99.90;;;;;;5055579;28;20180;-69
2023/03/12 08:21:19;;;;;;;3.40;3.00;;;3.10;99.90;;;;;;5055062;28;20252;-67
2023/03/12 08:23:45;;;;;;;2.80;2.60;;;3.20;99.90;;;;;;5054598;28;20211;-67
2023/03/12 08:26:10;;;;;;;2.43;2.23;;;3.30;99.90;;;;;;5053711;28;20522;-68
2023/03/12 08:28:36;;;;;;;5.77;3.63;;;3.30;99.90;;;;;;5055236;28;20201;-70
2023/03/12 08:31:03;;;;;;;2.90;2.70;;;3.30;99.90;;;;;;5053063;28;20169;-68
2023/03/12 08:33:30;;;;;;;2.88;2.47;;;3.40;99.90;;;;;;5046364;28;20629;-70
2023/03/12 08:35:56;;;;;;;5.17;4.77;;;3.40;99.90;;;;;;5051626;28;20185;-68
2023/03/12 08:38:21;;;;;;;3.60;3.40;;;3.40;99.90;;;;;;5052815;28;20180;-72
2023/03/12 08:40:57;;;;;;;5.50;3.60;;;3.50;99.90;;;;;;5053985;28;20173;-70
2023/03/12 08:43:22;;;;;;;3.42;3.22;;;3.50;99.90;;;;;;5049471;28;20172;-69
2023/03/12 08:45:56;;;;;;;3.33;2.80;;;3.60;99.90;;;;;;5053322;28;20197;-65
2023/03/12 08:48:22;;;;;;;3.42;3.13;;;3.60;99.90;;;;;;5054396;28;20197;-68
2023/03/12 08:50:47;;;;;;;4.37;3.50;;;3.70;99.90;;;;;;5054756;28;20252;-69
2023/03/12 08:53:14;;;;;;;4.47;3.23;;;3.80;99.90;;;;;;5054098;28;20378;-69
2023/03/12 08:55:39;;;;;;;3.17;2.97;;;3.70;99.90;;;;;;5053537;28;20266;-68
2023/03/12 08:58:05;;;;;;;5.30;3.53;;;3.80;99.90;;;;;;5056046;28;20205;-69
2023/03/12 09:00:31;;;;;;;2.93;2.73;;;3.90;99.90;;;;;;5057423;28;20408;-69
2023/03/12 09:02:57;;;;;;;4.00;3.70;;;4.00;99.90;;;;;;5055327;28;20189;-70
2023/03/12 09:05:24;;;;;;;4.05;3.45;;;4.10;99.90;;;;;;5055626;28;20204;-68
2023/03/12 09:07:49;;;;;;;4.57;4.18;;;4.10;99.90;;;;;;5054422;28;20189;-67
2023/03/12 09:10:16;;;;;;;4.67;4.07;;;4.20;99.90;;;;;;5054758;28;20648;-68
2023/03/12 09:12:43;;;;;;;5.25;3.80;;;4.30;99.90;;;;;;5054417;28;20163;-69
2023/03/12 09:15:09;;;;;;;3.70;3.15;;;4.50;99.90;;;;;;5054104;28;20185;-69
2023/03/12 09:17:35;;;;;;;4.90;3.87;;;4.60;99.90;;;;;;5054104;28;20660;-69
2023/03/12 09:20:00;;;;;;;5.10;3.97;;;4.70;99.90;;;;;;5054413;28;20407;-68
2023/03/12 09:22:28;;;;;;;6.77;3.77;;;4.70;99.90;;;;;;5054487;28;20641;-67
2023/03/12 09:24:54;;;;;;;4.07;3.70;;;4.90;99.90;;;;;;5054366;28;20247;-69
2023/03/12 09:27:20;;;;;;;3.50;3.20;;;5.00;99.90;;;;;;5052344;28;20657;-68
2023/03/12 09:29:45;;;;;;;6.50;5.80;;;5.20;99.90;;;;;;5052092;28;20188;-69
2023/03/12 09:32:14;;;;;;;4.00;3.50;;;5.30;99.90;;;;;;5053193;28;20632;-68
2023/03/12 09:34:39;;;;;;;4.65;4.03;;;5.40;99.90;;;;;;5053960;28;20287;-68
2023/03/12 09:37:05;;;;;;;4.13;3.77;;;5.60;99.90;;;;;;5053928;28;20256;-68
2023/03/12 09:39:30;;;;;;;4.47;4.00;;;5.70;99.90;;;;;;5054015;28;20171;-68
2023/03/12 09:41:56;;;;;;;6.30;4.73;;;5.90;99.90;;;;;;5053003;28;20182;-67
2023/03/12 09:44:30;;;;;;;5.30;4.30;;;6.10;99.90;;;;;;5053832;28;20650;-67
2023/03/12 09:47:01;;;;;;;6.43;5.13;;;6.20;99.90;;;;;;5054370;28;20173;-66
2023/03/12 09:49:43;;;;;;;5.72;4.95;;;6.40;99.90;;;;;;5053074;28;20215;-67
2023/03/12 09:52:24;;;;;;;4.93;4.53;;;6.50;99.90;;;;;;5053766;28;20165;-67
2023/03/12 09:55:15;;;;;;;4.18;3.80;;;6.80;99.90;;;;;;5052790;28;20235;-66
2023/03/12 09:57:43;;;;;;;4.53;4.13;;;6.90;99.90;;;;;;5052064;28;20264;-66
2023/03/12 10:00:15;;;;;;;6.80;4.00;;;7.10;99.90;;;;;;5052769;28;20177;-68
2023/03/12 10:03:09;;;;;;;6.18;5.45;;;7.30;99.90;;;;;;5052387;28;20179;-66
2023/03/12 10:05:55;;;;;;;3.83;3.53;;;7.50;99.90;;;;;;5046859;28;20221;-66
2023/03/12 10:09:03;;;;;;;4.93;3.13;;;7.90;99.90;;;;;;5052662;28;20197;-67
2023/03/12 10:11:48;;;;;;;5.55;2.50;;;8.30;99.90;;;;;;5051176;28;20182;-68
2023/03/12 10:14:42;;;;;;;5.78;3.33;;;8.60;99.90;;;;;;5032266;28;20190;-68
2023/03/12 10:17:28;;;;;;;8.88;4.20;;;9.00;99.90;;;;;;5048617;28;20173;-70
2023/03/12 10:20:18;;;;;;;5.18;2.97;;;9.40;99.90;;;;;;5052816;28;20173;-68
2023/03/12 10:22:55;;;;;;;3.40;3.10;;;9.90;99.90;;;;;;4991119;28;20184;-67
2023/03/12 10:25:35;;;;;;;3.50;3.20;;;10.40;99.90;;;;;;4973706;28;20453;-69
2023/03/12 10:28:16;;;;;;;2.47;2.27;;;10.80;99.90;;;;;;4971643;28;20482;-72
2023/03/12 10:30:47;;;;;;;3.30;3.10;;;11.00;99.90;;;;;;4977847;28;20481;-69
2023/03/12 10:33:16;;;;;;;3.07;2.57;;;11.10;99.90;;;;;;4990753;28;20411;-63
2023/03/12 10:35:42;;;;;;;2.67;2.47;;;11.20;99.90;;;;;;4973628;28;20433;-67
2023/03/12 10:38:18;;;;;;;3.37;2.80;;;11.30;99.90;;;;;;4989385;28;20960;-68
2023/03/12 10:40:44;;;;;;;4.43;2.83;;;11.50;99.90;;;;;;4990725;28;20221;-70
2023/03/12 10:43:10;;;;;;;3.17;2.40;;;11.70;99.90;;;;;;4985468;28;20449;-70
2023/03/12 10:45:41;;;;;;;6.33;3.50;;;11.90;99.90;;;;;;4974024;28;20217;-69
2023/03/12 10:48:10;;;;;;;3.30;2.87;;;12.00;99.90;;;;;;4988434;28;20209;-69
2023/03/12 10:50:38;;;;;;;3.43;2.97;;;11.90;99.90;;;;;;4990369;28;20793;-67
2023/03/12 10:53:46;;;;;;;3.00;2.60;;;11.70;99.90;;;;;;4990466;28;21060;-70
2023/03/12 10:56:20;;;;;;;2.20;2.03;;;11.50;99.90;;;;;;4954705;28;20431;-68
2023/03/12 10:58:48;;;;;;;2.80;2.60;;;11.40;99.90;;;;;;4960633;28;20416;-71
2023/03/12 11:01:14;;;;;;;3.63;2.40;;;11.30;99.90;;;;;;5013191;28;20523;-67
2023/03/12 11:03:41;;;;;;;2.43;2.23;;;11.10;99.90;;;;;;5013315;28;20523;-68
2023/03/12 11:06:14;;;;;;;2.60;2.40;;;10.90;99.90;;;;;;4960703;28;1066525;-69
2023/03/12 11:08:40;;;;;;;2.20;2.00;;;10.80;99.90;;;;;;4998223;28;20235;-70
2023/03/12 11:11:06;;;;;;;2.07;1.97;;;10.70;99.90;;;;;;5012253;28;20474;-70
2023/03/12 11:13:34;;;;;;;2.53;2.33;;;10.60;99.90;;;;;;5014165;28;20660;-70
2023/03/12 11:16:02;;;;;;;2.07;1.93;;;10.50;99.90;;;;;;4998258;28;20177;-71
2023/03/12 11:18:31;;;;;;;2.80;2.10;;;10.50;99.90;;;;;;4997923;28;20518;-71
2023/03/12 11:21:14;;;;;;;3.17;2.50;;;10.50;99.90;;;;;;5014621;28;20578;-70
2023/03/12 11:24:05;;;;;;;2.73;2.53;;;10.60;99.90;;;;;;5013930;28;20423;-70
2023/03/12 11:26:36;;;;;;;1.50;1.40;;;10.90;99.90;;;;;;5013961;28;20475;-72
2023/03/12 11:29:12;;;;;;;1.83;1.73;;;11.20;99.90;;;;;;5056813;28;20498;-72
2023/03/12 11:31:43;;;;;;;1.90;1.70;;;11.70;99.90;;;;;;5056009;28;20523;-72
2023/03/12 11:34:23;;;;;;;3.57;2.10;;;12.40;99.90;;;;;;5054229;28;20443;-73
2023/03/12 11:36:48;;;;;;;2.80;2.40;;;12.80;99.90;;;;;;5056248;28;20461;-69
2023/03/12 11:39:29;;;;;;;2.33;2.13;;;13.00;99.90;;;;;;5055824;28;20522;-73
2023/03/12 11:41:57;;;;;;;2.40;2.20;;;13.20;99.90;;;;;;5050176;28;20657;-76
2023/03/12 11:44:29;;;;;;;2.03;1.60;;;13.30;99.90;;;;;;5055660;28;20419;-71
2023/03/12 11:47:30;;;;;;;1.70;1.40;;;13.40;99.90;;;;;;5056115;28;20413;-69
2023/03/12 11:50:09;;;;;;;1.23;1.23;;;13.70;99.90;;;;;;5050531;28;20499;-71
2023/03/12 11:52:46;;;;;;;1.00;1.00;;;14.00;99.90;;;;;;5054036;28;20926;-71
2023/03/12 11:55:36;;;;;;;1.33;1.13;;;14.10;99.90;;;;;;5054101;28;20443;-71
2023/03/12 11:58:23;;;;;;;1.40;1.30;;;14.30;99.90;;;;;;5048514;28;20440;-71
2023/03/12 12:01:15;;;;;;;1.70;0.97;;;14.60;99.90;;;;;;5054614;28;20505;-71
2023/03/12 12:03:47;;;;;;;1.37;1.20;;;14.70;99.90;;;;;;5055404;28;20459;-71
2023/03/12 12:06:21;;;;;;;0.90;0.90;;;14.70;99.90;;;;;;5054043;28;20973;-68
2023/03/12 12:09:12;;;;;;;0.90;0.90;;;14.70;99.90;;;;;;5055134;28;20450;-68
2023/03/12 12:12:11;;;;;;;0.70;0.70;;;14.50;99.90;;;;;;5043996;28;20842;-66
2023/03/12 12:14:52;;;;;;;1.43;1.10;;;14.10;99.90;;;;;;5054661;28;20453;-67
2023/03/12 12:17:50;;;;;;;1.27;0.93;;;13.90;99.90;;;;;;5050153;28;20417;-68
2023/03/12 12:20:22;;;;;;;0.63;0.50;;;13.70;99.90;;;;;;5048052;28;20426;-69
2023/03/12 12:23:02;;;;;;;1.80;0.87;;;13.40;99.90;;;;;;5054776;28;20412;-68
2023/03/12 12:25:56;;;;;;;0.93;0.60;;;13.30;99.90;;;;;;5054134;28;20445;-68
2023/03/12 12:28:35;;;;;;;1.23;0.80;;;13.20;99.90;;;;;;5054591;28;20452;-69
2023/03/12 12:31:23;;;;;;;0.90;0.50;;;13.40;99.90;;;;;;5054959;28;20406;-64
2023/03/12 12:34:04;;;;;;;0.83;0.80;;;13.60;99.90;;;;;;5053934;28;20422;-69
2023/03/12 12:36:33;;;;;;;1.17;1.10;;;13.60;99.90;;;;;;5054738;28;20397;-67
2023/03/12 12:39:11;;;;;;;1.10;1.00;;;13.70;99.90;;;;;;5054888;28;20430;-69
2023/03/12 12:41:53;;;;;;;0.93;0.70;;;13.90;99.90;;;;;;5054978;28;20407;-69
2023/03/12 12:44:24;;;;;;;1.00;0.90;;;14.10;99.90;;;;;;5054085;28;20423;-68
2023/03/12 12:47:00;;;;;;;0.80;0.80;;;14.10;99.90;;;;;;5054940;28;20427;-65
2023/03/12 12:49:39;;;;;;;0.80;0.70;;;14.10;99.90;;;;;;5054851;28;20873;-68
2023/03/12 12:52:10;;;;;;;0.60;0.60;;;14.10;99.90;;;;;;5054610;28;20465;-68
2023/03/12 12:55:17;;;;;;;1.03;0.80;;;14.20;99.90;;;;;;5053828;28;21018;-67
2023/03/12 12:57:55;;;;;;;0.70;0.70;;;14.30;99.90;;;;;;4993238;28;20952;-67
2023/03/12 13:00:38;;;;;;;0.90;0.90;;;14.40;99.90;;;;;;5046965;28;20424;-68
2023/03/12 13:03:04;;;;;;;1.83;1.57;;;14.30;99.90;;;;;;5054109;28;21320;-68
2023/03/12 13:05:36;;;;;;;2.30;2.10;;;14.30;99.90;;;;;;5053119;28;20513;-67
2023/03/12 13:08:03;;;;;;;1.33;0.90;;;14.20;99.90;;;;;;5052936;28;20608;-68
2023/03/12 13:10:32;;;;;;;0.80;0.80;;;14.10;99.90;;;;;;5054815;28;20487;-67
2023/03/12 13:13:18;;;;;;;0.90;0.90;;;13.90;99.90;;;;;;5054208;28;20948;-68
2023/03/12 13:15:44;;;;;;;0.60;0.60;;;13.90;99.90;;;;;;5053412;28;20451;-67
2023/03/12 13:18:23;;;;;;;0.70;0.70;;;13.80;99.90;;;;;;5053826;28;20438;-68
2023/03/12 13:20:51;;;;;;;1.33;0.97;;;13.80;99.90;;;;;;5054379;28;20399;-68
2023/03/12 13:23:48;;;;;;;9.80;1.13;;;13.80;99.90;;;;;;5053878;28;20401;-67
2023/03/12 13:26:24;;;;;;;1.23;0.90;;;13.60;99.90;;;;;;5054349;28;20400;-68
2023/03/12 13:28:53;;;;;;;0.87;0.83;;;13.60;99.90;;;;;;5053886;28;20467;-70
2023/03/12 13:31:27;;;;;;;3.50;3.30;;;13.60;99.90;;;;;;5054295;28;20457;-68
2023/03/12 13:34:07;;;;;;;1.10;0.67;;;13.60;99.90;;;;;;5053217;28;20419;-67
2023/03/12 13:36:36;;;;;;;3.00;0.77;;;13.60;99.90;;;;;;5052866;28;20586;-67
2023/03/12 13:39:04;;;;;;;2.30;1.13;;;13.50;99.90;;;;;;5053899;28;20410;-67
2023/03/12 13:41:36;;;;;;;1.70;0.97;;;13.60;99.90;;;;;;5054227;28;20415;-67
2023/03/12 13:44:24;;;;;;;1.00;1.00;;;13.70;99.90;;;;;;5053239;28;20415;-68
2023/03/12 13:47:04;;;;;;;2.73;1.27;;;13.90;99.90;;;;;;5053871;28;20412;-68
2023/03/12 13:49:43;;;;;;;4.60;0.90;;;13.80;99.90;;;;;;5047922;28;21033;-68
2023/03/12 13:52:30;;;;;;;2.67;0.70;;;13.80;99.90;;;;;;5053150;28;20507;-69
2023/03/12 13:55:17;;;;;;;2.40;1.20;;;13.90;99.90;;;;;;5049782;28;20462;-68
2023/03/12 13:58:14;;;;;;;2.40;1.30;;;13.90;99.90;;;;;;5052437;28;20436;-68
2023/03/12 14:00:52;;;;;;;1.07;0.90;;;13.80;99.90;;;;;;5047284;28;20419;-68
2023/03/12 14:03:38;;;;;;;1.37;0.87;;;13.90;99.90;;;;;;5052366;28;20477;-67
2023/03/12 14:06:03;;;;;;;1.70;1.13;;;14.00;99.90;;;;;;5052767;28;20486;-68
2023/03/12 14:09:06;;;;;;;1.10;0.73;;;13.90;99.90;;;;;;5050996;28;20463;-67
2023/03/12 14:11:35;;;;;;;0.80;0.80;;;13.90;99.90;;;;;;5052089;28;20278;-68
2023/03/12 14:14:23;;;;;;;1.70;1.23;;;13.80;99.90;;;;;;5052486;28;20443;-67
2023/03/12 14:16:51;;;;;;;1.00;0.80;;;13.70;99.90;;;;;;5051396;28;21017;-68
2023/03/12 14:19:22;;;;;;;2.60;1.37;;;13.70;99.90;;;;;;5052480;28;20814;-68
2023/03/12 14:21:50;;;;;;;1.60;1.10;;;13.90;99.90;;;;;;5044187;28;20428;-67
2023/03/12 14:24:38;;;;;;;1.30;0.97;;;13.90;99.90;;;;;;5051559;28;20436;-67
2023/03/12 14:27:10;;;;;;;3.57;2.17;;;13.90;99.90;;;;;;5052698;28;20457;-67
2023/03/12 14:29:39;;;;;;;1.33;0.80;;;13.80;99.90;;;;;;5051714;28;20538;-68
2023/03/12 14:32:17;;;;;;;1.77;1.00;;;13.70;99.90;;;;;;5052324;28;20954;-68
2023/03/12 14:34:53;;;;;;;3.90;1.17;;;13.60;99.90;;;;;;5051753;28;20501;-68
2023/03/12 14:37:30;;;;;;;4.73;1.03;;;13.40;99.90;;;;;;5052648;28;20451;-67
2023/03/12 14:40:24;;;;;;;1.87;1.07;;;13.20;99.90;;;;;;5052757;28;20519;-67
2023/03/12 14:42:50;;;;;;;6.33;1.13;;;13.10;99.90;;;;;;5048762;28;21026;-67
2023/03/12 14:45:18;;;;;;;1.50;0.70;;;12.90;99.90;;;;;;5049225;28;20531;-67
2023/03/12 14:47:47;;;;;;;1.13;1.00;;;12.90;99.90;;;;;;5052892;28;20197;-68
2023/03/12 14:50:17;;;;;;;1.30;1.17;;;12.90;99.90;;;;;;5051975;28;20475;-67
2023/03/12 14:52:42;;;;;;;3.30;1.13;;;12.90;99.90;;;;;;5051682;28;20424;-68
2023/03/12 14:55:17;;;;;;;3.27;1.03;;;13.00;99.90;;;;;;5049041;28;20473;-67
2023/03/12 14:57:44;;;;;;;1.27;1.03;;;13.10;99.90;;;;;;5046392;28;20176;-67
2023/03/12 15:00:36;;;;;;;1.57;1.03;;;13.30;99.90;;;;;;5050641;28;20422;-67
2023/03/12 15:03:04;;;;;;;0.57;0.50;;;13.40;99.90;;;;;;5049790;28;20791;-68
2023/03/12 15:05:30;;;;;;;1.90;0.90;;;13.40;99.90;;;;;;5050741;28;20546;-66
2023/03/12 15:08:01;;;;;;;1.93;1.57;;;13.40;99.90;;;;;;5045996;28;20534;-66
2023/03/12 15:10:28;;;;;;;1.10;1.00;;;13.40;99.90;;;;;;5051092;28;20428;-66
2023/03/12 15:12:57;;;;;;;1.30;0.90;;;13.50;99.90;;;;;;5051870;28;20421;-66
2023/03/12 15:15:42;;;;;;;2.07;1.97;;;13.50;99.90;;;;;;5051064;28;20432;-67
2023/03/12 15:18:15;;;;;;;1.27;0.97;;;13.60;99.90;;;;;;5051909;28;20443;-67
2023/03/12 15:20:41;;;;;;;0.87;0.67;;;13.60;99.90;;;;;;5051479;28;20419;-68
2023/03/12 15:23:10;;;;;;;2.90;1.30;;;13.60;99.90;;;;;;5050987;28;20477;-69
2023/03/12 15:25:37;;;;;;;1.60;0.97;;;13.60;99.90;;;;;;5050538;28;20848;-68
2023/03/12 15:28:09;;;;;;;0.80;0.80;;;13.50;99.90;;;;;;5051681;28;20488;-68
2023/03/12 15:30:36;;;;;;;0.87;0.87;;;13.50;99.90;;;;;;5051885;28;20776;-68
2023/03/12 15:33:05;;;;;;;0.83;0.83;;;13.50;99.90;;;;;;5051373;28;20427;-68
2023/03/12 15:35:30;;;;;;;2.97;1.03;;;13.40;99.90;;;;;;5051275;28;20495;-68
2023/03/12 15:37:56;;;;;;;1.13;0.80;;;13.30;99.90;;;;;;5051334;28;20430;-67
2023/03/12 15:40:23;;;;;;;0.70;0.60;;;13.20;99.90;;;;;;5051782;28;20208;-67
2023/03/12 15:42:49;;;;;;;1.27;0.90;;;13.20;99.90;;;;;;5055249;28;20250;-68
2023/03/12 15:45:33;;;;;;;1.03;0.93;;;13.10;99.90;;;;;;5054373;28;20507;-66
2023/03/12 15:47:58;;;;;;;1.33;0.93;;;13.10;99.90;;;;;;5054753;28;20494;-65
2023/03/12 15:50:36;;;;;;;1.77;1.10;;;13.00;99.90;;;;;;5055381;28;20477;-67
2023/03/12 15:53:05;;;;;;;1.60;0.83;;;13.10;99.90;;;;;;5054940;28;20222;-69
2023/03/12 15:55:33;;;;;;;0.80;0.80;;;13.00;99.90;;;;;;5052688;28;20441;-69
2023/03/12 15:58:00;;;;;;;1.50;0.93;;;13.00;99.90;;;;;;5045435;28;20524;-67
2023/03/12 16:00:30;;;;;;;1.27;0.80;;;12.90;99.90;;;;;;5054931;28;20421;-68
2023/03/12 16:02:57;;;;;;;4.27;1.30;;;12.90;99.90;;;;;;5054766;28;20445;-66
2023/03/12 16:05:32;;;;;;;1.33;1.20;;;12.90;99.90;;;;;;5050628;28;20453;-66
2023/03/12 17:07:20;;;;;;;3.65;3.28;;;11.80;99.90;;;;;;5069007;28;20598;-68
2023/03/12 17:09:46;;;;;;;4.00;1.73;;;11.80;99.90;;;;;;5068137;28;20192;-70
2023/03/12 17:12:31;;;;;;;1.50;1.40;;;11.80;99.90;;;;;;5068971;28;20188;-68
2023/03/12 17:14:59;;;;;;;1.48;1.35;;;11.80;99.90;;;;;;5066236;28;20204;-70
2023/03/12 17:17:24;;;;;;;3.90;1.55;;;11.80;99.90;;;;;;5055233;28;20208;-69
2023/03/12 17:19:53;;;;;;;2.63;2.33;;;11.80;99.90;;;;;;5056482;28;20252;-68
2023/03/12 17:22:19;;;;;;;2.37;1.90;;;11.80;99.90;;;;;;5053202;28;20186;-67
2023/03/12 17:24:46;;;;;;;1.80;1.20;;;11.80;99.90;;;;;;5068536;28;20577;-68
2023/03/12 17:27:12;;;;;;;2.70;1.65;;;11.70;99.90;;;;;;5067509;28;20462;-68
2023/03/12 17:29:38;;;;;;;5.50;1.93;;;11.70;99.90;;;;;;5063509;28;20202;-68
2023/03/12 17:32:03;;;;;;;2.27;1.13;;;11.60;99.90;;;;;;5053519;28;20957;-70
2023/03/12 17:34:29;;;;;;;5.60;2.30;;;11.60;99.90;;;;;;5056348;28;20581;-69
2023/03/12 17:36:55;;;;;;;1.37;0.90;;;11.50;99.90;;;;;;5074278;28;20257;-71
2023/03/12 17:39:20;;;;;;;2.33;1.60;;;11.50;99.90;;;;;;5059607;28;20208;-67
2023/03/12 17:41:46;;;;;;;2.33;1.73;;;11.50;99.90;;;;;;5052672;28;20178;-67
2023/03/12 17:44:13;;;;;;;8.30;2.37;;;11.40;99.90;;;;;;5063442;28;20659;-67
2023/03/12 17:46:39;;;;;;;3.42;2.22;;;11.40;99.90;;;;;;5062519;28;20197;-69
2023/03/12 17:49:05;;;;;;;2.83;1.60;;;11.30;99.90;;;;;;5065065;28;20182;-68
2023/03/12 17:51:30;;;;;;;2.77;2.27;;;11.20;99.90;;;;;;5059594;28;20501;-69
2023/03/12 17:53:56;;;;;;;5.37;3.00;;;11.10;99.90;;;;;;5049216;28;20748;-69
2023/03/12 17:56:22;;;;;;;4.00;2.90;;;11.10;99.90;;;;;;5060416;28;20189;-67
2023/03/12 17:58:47;;;;;;;2.30;2.07;;;11.00;99.90;;;;;;5067075;28;20172;-69
2023/03/12 18:01:14;;;;;;;1.70;1.60;;;10.90;99.90;;;;;;5056972;28;20178;-67
2023/03/12 18:03:42;;;;;;;3.15;1.67;;;10.90;99.90;;;;;;5059617;28;20181;-67
2023/03/12 18:06:08;;;;;;;3.55;2.83;;;10.80;99.90;;;;;;5055083;28;20193;-67
2023/03/12 18:08:34;;;;;;;2.05;1.40;;;10.70;99.90;;;;;;5065905;28;20184;-69
2023/03/12 18:11:01;;;;;;;1.47;1.37;;;10.70;99.90;;;;;;5053795;28;20512;-68
2023/03/12 18:13:27;;;;;;;3.10;1.90;;;10.70;99.90;;;;;;5063435;28;20184;-68
2023/03/12 18:15:55;;;;;;;2.13;1.70;;;10.60;99.90;;;;;;5057637;28;20201;-70
2023/03/12 18:18:22;;;;;;;2.47;1.45;;;10.60;99.90;;;;;;5041802;28;20174;-68
2023/03/12 18:20:48;;;;;;;2.67;1.63;;;10.50;99.90;;;;;;5049569;28;20554;-68
2023/03/12 18:23:14;;;;;;;1.88;1.60;;;10.60;99.90;;;;;;5038952;28;20543;-68
2023/03/12 18:25:39;;;;;;;2.10;1.45;;;10.60;99.90;;;;;;5054938;28;20198;-68
2023/03/12 18:28:05;;;;;;;4.83;2.77;;;10.60;99.90;;;;;;5055559;28;20177;-68
2023/03/12 18:30:31;;;;;;;3.10;2.80;;;10.60;99.90;;;;;;5038587;28;20178;-69
2023/03/12 18:32:56;;;;;;;4.60;2.30;;;10.70;99.90;;;;;;5036564;28;20185;-69
2023/03/12 18:35:27;;;;;;;2.70;2.00;;;10.70;99.90;;;;;;5035095;28;20291;-69
2023/03/12 18:37:53;;;;;;;2.63;2.13;;;10.70;99.90;;;;;;5046337;28;20170;-68
2023/03/12 18:40:19;;;;;;;5.35;2.45;;;10.70;99.90;;;;;;5042002;28;20197;-70
2023/03/12 18:42:45;;;;;;;3.53;2.07;;;10.80;99.90;;;;;;5052139;28;20651;-68
2023/03/12 18:45:11;;;;;;;2.83;2.17;;;10.80;99.90;;;;;;5048486;28;20191;-68
2023/03/12 18:47:40;;;;;;;6.95;2.15;;;10.90;99.90;;;;;;5038917;28;20224;-68
2023/03/12 18:50:08;;;;;;;6.78;2.10;;;10.90;99.90;;;;;;5053067;28;20204;-69
2023/03/12 18:52:34;;;;;;;8.20;2.58;;;10.90;99.90;;;;;;5053503;28;20169;-69
2023/03/12 18:55:00;;;;;;;3.05;1.63;;;10.90;99.90;;;;;;5049220;28;20200;-70
2023/03/12 18:57:25;;;;;;;2.30;1.60;;;11.00;99.90;;;;;;5037562;28;20181;-69
2023/03/12 18:59:51;;;;;;;3.73;2.07;;;11.00;99.90;;;;;;5054355;28;20177;-68
2023/03/12 19:02:17;;;;;;;5.03;1.77;;;11.10;99.90;;;;;;5047843;28;20184;-70
2023/03/12 19:04:42;;;;;;;1.40;1.30;;;11.10;99.90;;;;;;5052946;28;20194;-70
2023/03/12 19:07:09;;;;;;;2.40;2.10;;;11.10;99.90;;;;;;5054533;28;20201;-68
2023/03/12 19:09:35;;;;;;;1.85;1.55;;;11.20;99.90;;;;;;5045183;28;20654;-67
2023/03/12 19:12:01;;;;;;;1.90;1.53;;;11.20;99.90;;;;;;5048710;28;20186;-68